Startpagina
METAR-TAF:

METAR-TAF

Vliegvelden :

Aeroporto João Paulo II

Ponta Delgada, Azoren, Portugal

breedte: 37-44N, lengte: 025-42W, hoogte: 71 m

Actueel weer

Dit bericht is 21 minuten geleden gemaakt, om 10:00 UTC
Wind 6 kt uit het oosten, variërend tussen het oostnoordoosten en het zuidoosten
Temperatuur 24°C
Vochtigheid 74%
Druk 1028 hPa
Zicht 10 km of meer
Weinig wolken op 1800 ft

METAR: LPPD 231000Z 10006KT 060V130 9999 FEW018 24/19 Q1028

Tijdstip: 10:21 (10:21 UTC)

Verwachting

Dit bericht is 5 uur en het 21 minuten geleden gemaakt, om 05:00 UTC
Verwachting geldig van 23 om 06 UTC tot 24 om 06 UTC
Wind 5 kt uit variabele richting
Zicht 10 km of meer
Verspreide wolken op 1800 ft
Verspreide wolken op 4000 ft
Wijzigt naar
van 23 om 10 UTC tot 23 om 12 UTC
Wind 8 kt uit het zuidzuidoosten

TAF: LPPD 230500Z 2306/2406 VRB05KT 9999 SCT018 SCT040 BECMG 2310/2312 15008KT

Waarnemingen en weersverwachtingen van meer dan 4000 vliegvelden (METAR en TAF).

De beschikbare stations zijn de gele en rode punten op de kaart.

Ga met uw muis naar het station om de naam te zien.

Klik dan om waarnemingen en weersverwachtingen te zien.

kaart wijzigen: klik op de groene knoppen met een zwart kruis om in te zoomen, op de groene knop met een streepje om uit te zoomen of op de groene pijlen voor aangrenzende kaarten.


METAR-TAF: